createdAt,value
2023-05-20T00:00:49.688Z,2.70
2023-05-20T00:03:20.648Z,2.83
2023-05-20T00:05:47.674Z,2.72
2023-05-20T00:08:15.464Z,3.45
2023-05-20T00:10:42.274Z,3.45
2023-05-20T00:13:09.305Z,3.53
2023-05-20T00:15:36.844Z,3.90
2023-05-20T00:18:04.763Z,3.10
2023-05-20T00:20:32.627Z,3.33
2023-05-20T00:22:59.870Z,3.50
2023-05-20T00:25:26.797Z,3.30
2023-05-20T00:27:53.819Z,3.40
2023-05-20T00:30:20.666Z,3.25
2023-05-20T00:32:48.042Z,3.33
2023-05-20T00:35:14.993Z,3.50
2023-05-20T00:37:43.267Z,3.40
2023-05-20T00:40:10.429Z,3.17
2023-05-20T00:42:37.611Z,3.17
2023-05-20T00:45:05.142Z,3.50
2023-05-20T00:47:34.251Z,2.93
2023-05-20T00:50:01.541Z,3.63
2023-05-20T00:52:31.945Z,4.13
2023-05-20T00:54:59.690Z,3.67
2023-05-20T00:57:27.412Z,3.90
2023-05-20T00:59:54.925Z,3.70
2023-05-20T01:02:23.376Z,4.13
2023-05-20T01:04:50.749Z,3.90
2023-05-20T01:07:19.311Z,3.57
2023-05-20T01:09:46.514Z,3.90
2023-05-20T01:12:21.290Z,3.90
2023-05-20T01:15:02.010Z,3.97
2023-05-20T01:17:33.124Z,3.50
2023-05-20T01:20:02.618Z,4.23
2023-05-20T01:22:30.038Z,3.80
2023-05-20T01:24:57.181Z,4.10
2023-05-20T01:27:26.575Z,3.67
2023-05-20T01:29:54.329Z,4.00
2023-05-20T01:32:26.284Z,3.93
2023-05-20T01:34:53.611Z,4.03
2023-05-20T01:37:23.134Z,3.90
2023-05-20T01:39:51.174Z,3.60
2023-05-20T01:42:19.889Z,4.00
2023-05-20T01:44:48.436Z,4.07
2023-05-20T01:47:15.491Z,3.92
2023-05-20T01:49:42.254Z,3.97
2023-05-20T01:52:10.473Z,4.17
2023-05-20T01:54:37.288Z,4.10
2023-05-20T01:57:04.621Z,4.13
2023-05-20T01:59:31.436Z,4.23
2023-05-20T02:01:58.607Z,4.13
2023-05-20T02:04:25.549Z,4.40
2023-05-20T02:06:52.585Z,4.57
2023-05-20T02:09:19.367Z,4.67
2023-05-20T02:11:46.412Z,4.67
2023-05-20T02:14:13.337Z,4.90
2023-05-20T02:16:41.129Z,4.27
2023-05-20T02:19:12.803Z,4.33
2023-05-20T02:21:41.564Z,4.40
2023-05-20T02:24:10.086Z,4.60
2023-05-20T02:26:37.080Z,4.17
2023-05-20T02:29:03.905Z,4.10
2023-05-20T02:31:30.982Z,4.33
2023-05-20T02:33:57.831Z,4.90
2023-05-20T02:36:25.775Z,3.83
2023-05-20T02:38:54.738Z,4.05
2023-05-20T02:41:21.874Z,4.10
2023-05-20T02:43:49.555Z,4.33
2023-05-20T02:46:18.657Z,4.20
2023-05-20T02:48:46.341Z,4.53
2023-05-20T02:51:14.435Z,4.43
2023-05-20T02:53:41.517Z,4.40
2023-05-20T02:56:08.803Z,3.80
2023-05-20T02:58:35.701Z,3.97
2023-05-20T03:01:03.417Z,3.90
2023-05-20T03:03:30.210Z,5.17
2023-05-20T03:05:57.246Z,3.90
2023-05-20T03:08:24.233Z,4.07
2023-05-20T03:10:51.679Z,3.73
2023-05-20T03:13:18.504Z,4.20
2023-05-20T03:15:45.993Z,4.20
2023-05-20T03:18:13.798Z,4.20
2023-05-20T03:20:41.694Z,4.15
2023-05-20T03:23:09.331Z,3.80
2023-05-20T03:25:38.719Z,4.18
2023-05-20T03:28:06.744Z,3.53
2023-05-20T03:30:36.408Z,4.18
2023-05-20T03:33:03.391Z,4.10
2023-05-20T03:35:30.691Z,4.22
2023-05-20T03:37:58.722Z,4.15
2023-05-20T03:40:26.245Z,3.97
2023-05-20T03:42:53.496Z,3.73
2023-05-20T03:45:22.004Z,3.83
2023-05-20T03:48:03.557Z,4.00
2023-05-20T03:50:33.293Z,4.28
2023-05-20T03:53:01.224Z,4.70
2023-05-20T03:55:33.948Z,4.35
2023-05-20T03:58:01.839Z,4.55
2023-05-20T04:00:31.426Z,4.30
2023-05-20T04:02:58.731Z,4.47
2023-05-20T04:05:25.928Z,3.83
2023-05-20T04:07:54.577Z,4.25
2023-05-20T04:10:23.895Z,5.28
2023-05-20T04:12:52.410Z,4.32
2023-05-20T04:15:23.830Z,4.23
2023-05-20T04:17:56.626Z,4.05
2023-05-20T04:20:24.402Z,3.83
2023-05-20T04:22:55.090Z,4.47
2023-05-20T04:25:22.405Z,3.78
2023-05-20T04:27:50.531Z,4.53
2023-05-20T04:30:18.555Z,4.20
2023-05-20T04:32:45.485Z,5.00
2023-05-20T04:35:13.920Z,4.13
2023-05-20T04:37:50.741Z,3.78
2023-05-20T04:40:19.078Z,4.00
2023-05-20T04:42:46.478Z,4.00
2023-05-20T04:45:13.816Z,4.20
2023-05-20T04:47:42.031Z,3.65
2023-05-20T04:50:11.153Z,3.70
2023-05-20T04:52:45.441Z,3.72
2023-05-20T04:55:13.571Z,3.40
2023-05-20T04:57:42.277Z,3.40
2023-05-20T05:00:12.399Z,3.20
2023-05-20T05:02:39.927Z,3.88
2023-05-20T05:05:08.538Z,3.40
2023-05-20T05:07:35.834Z,3.40
2023-05-20T05:10:03.093Z,3.60
2023-05-20T05:12:31.545Z,3.92
2023-05-20T05:14:59.313Z,4.30
2023-05-20T05:17:28.681Z,3.87
2023-05-20T05:19:57.004Z,3.43
2023-05-20T05:22:24.079Z,3.60
2023-05-20T05:24:52.338Z,3.80
2023-05-20T05:27:19.065Z,4.07
2023-05-20T05:29:46.140Z,4.15
2023-05-20T05:32:12.988Z,4.05
2023-05-20T05:34:40.155Z,3.83
2023-05-20T05:37:06.887Z,4.63
2023-05-20T05:39:37.453Z,3.67
2023-05-20T05:42:04.899Z,4.15
2023-05-20T05:44:32.348Z,3.75
2023-05-20T05:46:59.212Z,3.65
2023-05-20T05:49:27.502Z,3.70
2023-05-20T05:51:54.384Z,4.00
2023-05-20T05:54:22.020Z,3.67
2023-05-20T05:56:51.671Z,3.42
2023-05-20T05:59:20.005Z,3.22
2023-05-20T06:01:46.845Z,3.70
2023-05-20T06:04:15.416Z,3.70
2023-05-20T06:06:42.467Z,4.00
2023-05-20T06:09:09.564Z,4.10
2023-05-20T06:11:37.019Z,5.07
2023-05-20T06:14:04.026Z,4.63
2023-05-20T06:16:31.370Z,4.28
2023-05-20T06:19:03.253Z,4.43
2023-05-20T06:21:32.552Z,4.30
2023-05-20T06:23:59.683Z,3.90
2023-05-20T06:26:26.802Z,3.80
2023-05-20T06:28:53.886Z,3.50
2023-05-20T06:31:20.875Z,4.10
2023-05-20T06:33:48.594Z,3.78
2023-05-20T06:36:17.513Z,3.45
2023-05-20T06:38:44.608Z,3.85
2023-05-20T06:41:15.363Z,3.45
2023-05-20T06:43:42.595Z,3.95
2023-05-20T06:46:16.467Z,4.00
2023-05-20T06:48:48.686Z,3.40
2023-05-20T06:51:16.671Z,4.60
2023-05-20T06:53:46.655Z,4.63
2023-05-20T06:56:14.433Z,4.25
2023-05-20T06:58:41.464Z,4.07
2023-05-20T07:01:08.358Z,4.30
2023-05-20T07:03:35.974Z,3.88
2023-05-20T07:06:02.952Z,4.10
2023-05-20T07:08:31.333Z,4.22
2023-05-20T07:10:58.598Z,4.65
2023-05-20T07:13:26.215Z,3.92
2023-05-20T07:15:53.333Z,4.30
2023-05-20T07:18:21.581Z,3.83
2023-05-20T07:20:53.041Z,4.10
2023-05-20T07:23:52.778Z,4.28
2023-05-20T07:26:19.798Z,3.92
2023-05-20T07:28:47.675Z,3.92
2023-05-20T07:31:14.859Z,4.43
2023-05-20T07:33:44.470Z,4.68
2023-05-20T07:36:12.798Z,5.40
2023-05-20T07:38:49.709Z,5.13
2023-05-20T07:41:24.211Z,4.57
2023-05-20T07:43:51.279Z,4.15
2023-05-20T07:46:20.135Z,4.15
2023-05-20T07:48:47.550Z,4.32
2023-05-20T07:51:15.807Z,4.30
2023-05-20T07:53:42.846Z,3.90
2023-05-20T07:56:10.232Z,4.20
2023-05-20T07:58:43.516Z,4.07
2023-05-20T08:01:11.649Z,4.15
2023-05-20T08:03:38.827Z,3.88
2023-05-20T08:06:10.858Z,4.03
2023-05-20T08:08:40.439Z,5.03
2023-05-20T08:11:13.073Z,4.65
2023-05-20T08:13:40.814Z,4.70
2023-05-20T08:16:08.215Z,4.53
2023-05-20T08:18:38.920Z,4.03
2023-05-20T08:21:09.181Z,4.55
2023-05-20T08:23:39.654Z,4.13
2023-05-20T08:26:07.692Z,4.32
2023-05-20T08:28:39.559Z,4.18
2023-05-20T08:31:07.443Z,4.55
2023-05-20T08:33:35.162Z,4.50
2023-05-20T08:36:02.025Z,5.25
2023-05-20T08:38:29.962Z,4.20
2023-05-20T08:40:57.814Z,3.67
2023-05-20T08:43:26.687Z,4.05
2023-05-20T08:45:54.872Z,4.15
2023-05-20T08:48:26.549Z,3.75
2023-05-20T08:50:55.090Z,4.03
2023-05-20T08:53:22.835Z,4.35
2023-05-20T08:56:01.511Z,4.38
2023-05-20T08:58:29.775Z,4.90
2023-05-20T09:00:56.925Z,4.32
2023-05-20T09:03:25.601Z,4.22
2023-05-20T09:06:07.456Z,4.32
2023-05-20T09:08:35.284Z,3.80
2023-05-20T09:11:02.593Z,4.20
2023-05-20T09:13:32.816Z,5.50
2023-05-20T09:16:01.542Z,3.80
2023-05-20T09:18:29.833Z,4.43
2023-05-20T09:20:56.636Z,3.97
2023-05-20T09:23:25.601Z,4.18
2023-05-20T09:25:52.530Z,3.83
2023-05-20T09:28:24.155Z,4.18
2023-05-20T09:30:51.827Z,3.55
2023-05-20T09:33:18.813Z,3.97
2023-05-20T09:35:46.897Z,3.85
2023-05-20T09:38:15.443Z,4.07
2023-05-20T09:40:45.103Z,5.10
2023-05-20T09:43:13.500Z,3.47
2023-05-20T09:45:41.726Z,3.80
2023-05-20T09:48:11.769Z,3.58
2023-05-20T09:50:39.334Z,3.45
2023-05-20T09:53:08.858Z,4.80
2023-05-20T09:55:36.425Z,4.47
2023-05-20T09:58:03.602Z,3.58
2023-05-20T10:00:31.602Z,4.38
2023-05-20T10:02:59.703Z,3.75
2023-05-20T10:05:35.456Z,3.63
2023-05-20T10:08:29.293Z,4.32
2023-05-20T10:11:07.058Z,4.05
2023-05-20T10:14:07.533Z,4.20
2023-05-20T10:17:08.931Z,4.00
2023-05-20T10:19:36.413Z,3.92
2023-05-20T10:22:08.726Z,4.00
2023-05-20T10:24:44.029Z,4.20
2023-05-20T10:27:14.255Z,4.20
2023-05-20T10:29:52.442Z,4.07
2023-05-20T10:32:31.320Z,3.53
2023-05-20T10:35:01.199Z,3.83
2023-05-20T10:37:30.947Z,4.65
2023-05-20T10:40:25.462Z,4.85
2023-05-20T10:42:52.307Z,4.53
2023-05-20T10:45:27.687Z,4.80
2023-05-20T10:47:59.461Z,4.25
2023-05-20T10:50:35.367Z,4.80
2023-05-20T10:53:09.471Z,5.60
2023-05-20T10:55:41.608Z,5.10
2023-05-20T10:58:09.982Z,4.93
2023-05-20T11:00:37.811Z,5.07
2023-05-20T11:03:05.762Z,4.32
2023-05-20T11:05:33.583Z,4.13
2023-05-20T11:08:13.730Z,4.28
2023-05-20T11:10:51.489Z,5.78
2023-05-20T11:13:18.743Z,4.75
2023-05-20T11:15:45.951Z,5.82
2023-05-20T11:18:15.048Z,5.25
2023-05-20T11:20:43.903Z,5.95
2023-05-20T11:23:15.288Z,4.95
2023-05-20T11:25:42.790Z,5.75
2023-05-20T11:28:14.196Z,5.55
2023-05-20T11:30:43.197Z,4.97
2023-05-20T11:33:12.962Z,5.53
2023-05-20T11:35:47.158Z,5.57
2023-05-20T11:38:14.222Z,5.38
2023-05-20T11:40:50.420Z,5.40
2023-05-20T11:43:18.011Z,5.80
2023-05-20T11:45:47.167Z,6.32
2023-05-20T11:48:17.170Z,5.18
2023-05-20T11:50:46.289Z,6.63
2023-05-20T11:53:18.712Z,6.75
2023-05-20T11:55:51.074Z,7.35
2023-05-20T11:58:22.875Z,5.95
2023-05-20T12:00:55.133Z,6.22
2023-05-20T12:03:26.589Z,5.65
2023-05-20T12:05:53.765Z,5.65
2023-05-20T12:08:20.633Z,6.40
2023-05-20T12:10:47.696Z,5.80
2023-05-20T12:13:14.652Z,5.65
2023-05-20T12:15:41.760Z,5.03
2023-05-20T12:18:08.658Z,5.30
2023-05-20T12:20:37.280Z,5.25
2023-05-20T12:23:04.848Z,5.47
2023-05-20T12:25:31.998Z,5.38
2023-05-20T12:27:59.360Z,5.78
2023-05-20T12:30:26.451Z,4.70
2023-05-20T12:32:53.958Z,4.80
2023-05-20T12:35:25.927Z,5.70
2023-05-20T12:37:53.169Z,5.75
2023-05-20T12:40:20.374Z,5.22
2023-05-20T12:42:47.112Z,5.75
2023-05-20T12:45:14.133Z,5.45
2023-05-20T12:47:41.007Z,5.13
2023-05-20T12:50:08.254Z,5.40
2023-05-20T12:52:35.012Z,5.13
2023-05-20T12:55:02.125Z,6.68
2023-05-20T12:57:29.008Z,5.45
2023-05-20T12:59:56.665Z,5.75
2023-05-20T13:02:23.556Z,5.88
2023-05-20T13:04:51.062Z,6.82
2023-05-20T13:07:17.806Z,6.43
2023-05-20T13:09:44.855Z,5.65
2023-05-20T13:12:11.623Z,6.30
2023-05-20T13:14:38.673Z,6.55
2023-05-20T13:17:05.634Z,5.80
2023-05-20T13:19:32.804Z,6.35
2023-05-20T13:21:59.669Z,5.85
2023-05-20T13:24:27.183Z,6.47
2023-05-20T13:26:54.030Z,5.70
2023-05-20T13:29:21.467Z,6.75
2023-05-20T13:31:48.263Z,5.30
2023-05-20T13:34:15.395Z,6.25
2023-05-20T13:36:42.377Z,6.00
2023-05-20T13:39:09.531Z,5.93
2023-05-20T13:41:36.264Z,5.32
2023-05-20T13:44:03.640Z,6.80
2023-05-20T13:46:30.441Z,6.78
2023-05-20T13:48:57.564Z,6.50
2023-05-20T13:51:24.290Z,6.57
2023-05-20T13:53:51.298Z,6.55
2023-05-20T13:56:18.408Z,6.28
2023-05-20T13:58:45.599Z,7.50
2023-05-20T14:01:12.677Z,5.85
2023-05-20T14:03:42.755Z,6.97
2023-05-20T14:06:09.713Z,6.43
2023-05-20T14:08:36.728Z,6.35
2023-05-20T14:11:03.733Z,6.50
2023-05-20T14:13:31.008Z,6.28
2023-05-20T14:15:58.039Z,6.75
2023-05-20T14:18:25.151Z,7.28
2023-05-20T14:20:51.882Z,6.93
2023-05-20T14:23:18.855Z,7.28
2023-05-20T14:25:45.634Z,6.85
2023-05-20T14:28:12.691Z,6.85
2023-05-20T14:30:39.493Z,6.53
2023-05-20T14:33:06.705Z,7.30
2023-05-20T14:35:33.656Z,7.75
2023-05-20T14:38:00.750Z,7.28
2023-05-20T14:40:27.853Z,7.35
2023-05-20T14:42:54.903Z,7.22
2023-05-20T14:45:21.599Z,7.63
2023-05-20T14:47:48.686Z,7.65
2023-05-20T14:50:15.502Z,6.13
2023-05-20T14:52:42.715Z,6.07
2023-05-20T14:55:09.491Z,6.72
2023-05-20T14:57:36.615Z,6.95
2023-05-20T15:00:04.158Z,6.22
2023-05-20T15:02:31.351Z,7.25
2023-05-20T15:04:58.369Z,6.38
2023-05-20T15:07:25.416Z,5.90
2023-05-20T15:09:52.358Z,6.70
2023-05-20T15:12:19.444Z,7.20
2023-05-20T15:14:46.334Z,6.07
2023-05-20T15:17:13.495Z,6.28
2023-05-20T15:19:41.704Z,6.78
2023-05-20T15:22:09.209Z,7.20
2023-05-20T15:24:35.944Z,6.63
2023-05-20T15:27:03.856Z,6.53
2023-05-20T15:29:30.594Z,6.80
2023-05-20T15:31:58.423Z,6.53
2023-05-20T15:34:25.180Z,7.47
2023-05-20T15:36:52.321Z,5.50
2023-05-20T15:39:19.135Z,6.05
2023-05-20T15:41:47.978Z,6.32
2023-05-20T15:44:14.690Z,6.40
2023-05-20T15:46:41.835Z,7.07
2023-05-20T15:49:08.614Z,6.03
2023-05-20T15:51:35.742Z,5.97
2023-05-20T15:54:02.495Z,6.00
2023-05-20T15:56:29.880Z,5.18
2023-05-20T15:58:56.791Z,5.85
2023-05-20T16:01:23.936Z,5.70
2023-05-20T16:03:50.957Z,5.60
2023-05-20T16:06:18.643Z,4.82
2023-05-20T16:08:45.655Z,5.35
2023-05-20T16:11:12.714Z,5.30
2023-05-20T16:13:39.450Z,6.53
2023-05-20T16:16:06.707Z,7.05
2023-05-20T16:18:33.548Z,6.50
2023-05-20T16:21:00.656Z,6.45
2023-05-20T16:23:27.484Z,5.28
2023-05-20T16:25:54.569Z,6.20
2023-05-20T16:28:22.231Z,6.22
2023-05-20T16:30:49.292Z,5.68
2023-05-20T16:33:17.368Z,6.00
2023-05-20T16:35:44.486Z,12.95
2023-05-20T16:38:11.266Z,10.88
2023-05-20T16:40:38.329Z,10.63
2023-05-20T16:43:05.177Z,6.97
2023-05-20T16:45:32.210Z,6.78
2023-05-20T16:47:59.091Z,11.10
2023-05-20T16:50:26.423Z,10.32
2023-05-20T16:52:54.195Z,8.57
2023-05-20T16:55:21.455Z,7.97
2023-05-20T16:57:50.437Z,6.65
2023-05-20T17:00:17.647Z,5.35
2023-05-20T17:02:44.566Z,5.35
2023-05-20T17:05:11.740Z,6.00
2023-05-20T17:07:39.628Z,6.20
2023-05-20T17:10:07.312Z,5.60
2023-05-20T17:12:35.450Z,5.60
2023-05-20T17:15:02.531Z,5.85
2023-05-20T17:17:29.320Z,6.45
2023-05-20T17:19:56.381Z,6.00
2023-05-20T17:22:23.154Z,6.30
2023-05-20T17:24:50.467Z,7.30
2023-05-20T17:27:17.308Z,7.47
2023-05-20T17:29:44.383Z,6.93
2023-05-20T17:32:12.059Z,8.43
2023-05-20T17:34:39.135Z,6.38
2023-05-20T17:37:06.190Z,7.50
2023-05-20T17:39:33.185Z,5.65
2023-05-20T17:42:00.003Z,6.43
2023-05-20T17:44:27.044Z,5.90
2023-05-20T17:46:53.884Z,6.13
2023-05-20T17:49:21.236Z,5.93
2023-05-20T17:51:48.065Z,6.63
2023-05-20T17:54:15.132Z,6.30
2023-05-20T17:56:44.363Z,6.85
2023-05-20T17:59:11.570Z,6.32
2023-05-20T18:01:38.999Z,6.90
2023-05-20T18:04:06.337Z,6.75
2023-05-20T18:06:34.600Z,6.85
2023-05-20T18:09:04.589Z,6.15
2023-05-20T18:11:32.313Z,6.50
2023-05-20T18:14:00.405Z,7.00
2023-05-20T18:16:28.550Z,6.35
2023-05-20T18:18:56.663Z,6.03
2023-05-20T18:21:24.765Z,6.25
2023-05-20T18:23:52.050Z,6.05
2023-05-20T18:26:18.853Z,6.45
2023-05-20T18:28:45.863Z,6.22
2023-05-20T18:31:13.164Z,6.95
2023-05-20T18:33:41.076Z,6.13
2023-05-20T18:36:07.930Z,6.60
2023-05-20T18:38:34.992Z,7.65
2023-05-20T18:41:01.710Z,6.88
2023-05-20T18:43:28.738Z,6.60
2023-05-20T18:45:55.864Z,8.27
2023-05-20T18:48:26.588Z,7.25
2023-05-20T18:50:55.418Z,7.53
2023-05-20T18:53:22.546Z,9.68
2023-05-20T18:55:49.614Z,9.68
2023-05-20T18:58:16.698Z,9.95
2023-05-20T19:00:43.564Z,10.05
2023-05-20T19:03:11.553Z,10.38
2023-05-20T19:05:38.735Z,8.93
2023-05-20T19:08:06.299Z,9.65
2023-05-20T19:10:33.302Z,8.80
2023-05-20T19:13:00.479Z,8.60
2023-05-20T19:15:27.464Z,7.57
2023-05-20T19:17:54.557Z,8.43
2023-05-20T19:20:21.552Z,7.70
2023-05-20T19:22:48.631Z,7.65
2023-05-20T19:25:15.657Z,7.00
2023-05-20T19:27:42.675Z,7.90
2023-05-20T19:30:11.156Z,7.55
2023-05-20T19:32:38.906Z,7.95
2023-05-20T19:35:06.422Z,9.20
2023-05-20T19:37:33.723Z,9.75
2023-05-20T19:40:01.214Z,9.90
2023-05-20T19:42:28.335Z,10.20
2023-05-20T19:44:56.285Z,10.35
2023-05-20T19:47:23.475Z,10.10
2023-05-20T19:49:50.346Z,8.25
2023-05-20T19:52:17.683Z,8.55
2023-05-20T19:54:44.477Z,9.80
2023-05-20T19:57:11.554Z,9.88
2023-05-20T19:59:38.519Z,8.80
2023-05-20T20:02:06.787Z,10.32
2023-05-20T20:04:33.759Z,10.75
2023-05-20T20:07:00.927Z,9.15
2023-05-20T20:09:27.817Z,9.10
2023-05-20T20:11:55.056Z,8.95
2023-05-20T20:14:21.826Z,8.93
2023-05-20T20:16:49.555Z,8.77
2023-05-20T20:19:18.767Z,8.90
2023-05-20T20:21:46.413Z,8.52
2023-05-20T20:24:13.263Z,8.60
2023-05-20T20:26:40.632Z,7.65
2023-05-20T20:29:08.100Z,9.02
2023-05-20T20:31:35.162Z,17.02
2023-05-20T20:34:01.984Z,17.95
2023-05-20T20:36:32.061Z,16.08
2023-05-20T20:38:59.471Z,15.80
2023-05-20T20:41:27.238Z,17.58
2023-05-20T20:43:54.585Z,20.23
2023-05-20T20:46:21.767Z,23.27
2023-05-20T20:48:48.993Z,21.52
2023-05-20T20:51:17.035Z,19.75
2023-05-20T20:53:46.328Z,16.67
2023-05-20T20:56:13.599Z,15.48
2023-05-20T20:58:40.372Z,13.50
2023-05-20T21:01:07.529Z,12.13
2023-05-20T21:03:34.505Z,10.82
2023-05-20T21:06:02.009Z,10.52
2023-05-20T21:08:30.364Z,9.93
2023-05-20T21:10:59.500Z,9.63
2023-05-20T21:13:28.290Z,10.90
2023-05-20T21:15:55.624Z,10.05
2023-05-20T21:18:23.790Z,10.07
2023-05-20T21:20:52.538Z,10.32
2023-05-20T21:23:20.518Z,10.35
2023-05-20T21:25:48.410Z,10.63
2023-05-20T21:28:15.905Z,9.77
2023-05-20T21:30:45.184Z,8.82
2023-05-20T21:33:12.218Z,10.60
2023-05-20T21:35:39.290Z,10.27
2023-05-20T21:38:06.162Z,10.07
2023-05-20T21:40:33.184Z,10.27
2023-05-20T21:42:59.889Z,9.48
2023-05-20T21:45:27.008Z,10.20
2023-05-20T21:47:53.826Z,9.52
2023-05-20T21:50:21.050Z,10.02
2023-05-20T21:52:47.876Z,9.77
2023-05-20T21:55:15.004Z,10.65
2023-05-20T21:57:41.897Z,9.88
2023-05-20T22:00:10.464Z,11.68
2023-05-20T22:02:37.781Z,10.20
2023-05-20T22:05:05.423Z,10.52
2023-05-20T22:07:33.146Z,11.55
2023-05-20T22:10:00.782Z,9.85
2023-05-20T22:12:27.747Z,9.50
2023-05-20T22:14:54.801Z,10.07
2023-05-20T22:17:23.823Z,9.48
2023-05-20T22:19:51.777Z,9.40
2023-05-20T22:22:18.571Z,10.75
2023-05-20T22:24:45.796Z,9.85
2023-05-20T22:27:12.753Z,9.30
2023-05-20T22:29:39.771Z,10.18
2023-05-20T22:32:06.662Z,10.43
2023-05-20T22:34:33.677Z,11.75
2023-05-20T22:37:00.442Z,11.52
2023-05-20T22:39:27.452Z,10.82
2023-05-20T22:41:54.205Z,11.55
2023-05-20T22:44:21.456Z,13.98
2023-05-20T22:46:48.212Z,13.75
2023-05-20T22:49:16.688Z,13.30
2023-05-20T22:51:43.651Z,13.10
2023-05-20T22:54:11.165Z,12.15
2023-05-20T22:56:37.927Z,13.65
2023-05-20T22:59:04.950Z,13.52
2023-05-20T23:01:32.176Z,13.13
2023-05-20T23:03:59.380Z,13.57
2023-05-20T23:06:26.838Z,12.88
2023-05-20T23:08:53.846Z,13.25
2023-05-20T23:11:20.846Z,13.25
2023-05-20T23:13:47.913Z,11.90
2023-05-20T23:16:14.696Z,13.25
2023-05-20T23:18:41.792Z,12.60
2023-05-20T23:21:08.881Z,11.57
2023-05-20T23:23:35.866Z,11.38
2023-05-20T23:26:03.120Z,11.82
2023-05-20T23:28:30.739Z,11.05
2023-05-20T23:30:57.525Z,11.40
2023-05-20T23:33:25.585Z,11.90
2023-05-20T23:35:53.129Z,10.27
2023-05-20T23:38:20.212Z,10.82
2023-05-20T23:40:47.847Z,12.02
2023-05-20T23:43:15.329Z,10.50
2023-05-20T23:45:42.249Z,9.95
2023-05-20T23:48:12.996Z,9.65
2023-05-20T23:50:42.392Z,11.00
2023-05-20T23:53:09.416Z,9.82
2023-05-20T23:55:36.378Z,10.75
2023-05-20T23:58:03.560Z,8.70
